PAOT

Kotzebue/Ralph Wien Memorial Airport

Airport
ICAO code
PAOT
Summary
ICAO Region
NAM
ICAO Territory
Location

Kotzebue,

Serving
Kotzebue
Coordinates
66° 53' 21" N , 162° 36' 19" W
KCC
Airport BS
Bird Strike
Non Avian Wildlife Hazards to Aircraft
Airport CFIT
Altimeter Temperature Error Correction
Metar
PAOT 270853Z AUTO 00000KT 10SM BKN014 OVC019 M02/M02 A2982 RMK AO2 SLP098 60000 T10221022 400331022 51003 TSNO

Description

Regional airport serving Kotzebue, Alaska.

Climatology

Subarctic climate (Köppen climate classification Dfc) - long, usually very cold winters, and short, cool to mild summers.

Runways

Designator Length Width Surface Rops
17/35 1158 27 GVL Yes/Yes
9/27 1798 46 ASPH-G Yes/Yes

Airport map

Aerial View

SKYbrary Partners:

Safety knowledge contributed by: